Time;durP1;ratioP1;P1;durP2;ratioP2;P2;SDS_P1;SDS_P2;PMS_P1;PMS_P2;Temp;Humidity;BMP_temperature;BMP_pressure;BME280_temperature;BME280_humidity;BME280_pressure;Samples;Min_cycle;Max_cycle;Signal;HPM_P1;HPM_P2
2022/07/21 00:02:13;;;;;;;51.67;26.33;;;21.90;56.60;;;;;;5054168;28;20909;-78
2022/07/21 00:05:01;;;;;;;38.00;25.33;;;21.80;52.40;;;;;;5043617;28;20792;-77
2022/07/21 00:07:32;;;;;;;36.50;23.77;;;21.80;52.40;;;;;;5046086;28;20438;-77
2022/07/21 00:10:20;;;;;;;43.50;27.30;;;21.70;56.50;;;;;;5042393;28;20428;-78
2022/07/21 00:12:56;;;;;;;41.73;25.70;;;21.70;52.50;;;;;;5068185;28;20440;-78
2022/07/21 00:15:24;;;;;;;35.40;23.57;;;21.70;52.30;;;;;;5054270;28;20402;-78
2022/07/21 00:18:19;;;;;;;35.30;25.17;;;21.60;56.30;;;;;;5054306;28;20412;-82
2022/07/21 00:21:02;;;;;;;43.57;27.00;;;21.50;52.20;;;;;;5054117;28;20516;-82
2022/07/21 00:24:13;;;;;;;38.00;25.63;;;21.50;52.20;;;;;;5039231;28;20465;-82
2022/07/21 00:26:49;;;;;;;43.17;26.23;;;21.40;52.10;;;;;;5047457;28;20427;-82
2022/07/21 00:29:32;;;;;;;37.10;26.60;;;21.40;52.10;;;;;;5044388;28;20412;-82
2022/07/21 00:31:59;;;;;;;48.10;27.60;;;21.30;52.20;;;;;;5040811;28;20773;-78
2022/07/21 00:34:25;;;;;;;41.43;26.87;;;21.30;52.00;;;;;;5045806;28;20440;-77
2022/07/21 00:37:01;;;;;;;36.07;26.70;;;21.30;52.10;;;;;;5054084;28;20419;-79
2022/07/21 00:39:31;;;;;;;50.27;28.10;;;21.20;58.70;;;;;;5039492;28;20205;-78
2022/07/21 00:41:57;;;;;;;47.23;28.20;;;21.20;62.00;;;;;;5043602;28;20418;-78
2022/07/21 00:44:32;;;;;;;47.03;27.00;;;21.20;64.30;;;;;;5041591;28;20419;-78
2022/07/21 00:46:58;;;;;;;43.83;27.20;;;21.20;71.80;;;;;;5032781;28;20183;-77
2022/07/21 00:49:27;;;;;;;46.43;28.87;;;21.10;85.40;;;;;;5046769;28;20423;-78
2022/07/21 00:51:53;;;;;;;50.20;29.67;;;21.10;90.80;;;;;;5033736;28;20377;-78
2022/07/21 00:54:32;;;;;;;53.77;29.20;;;21.20;92.50;;;;;;5045964;28;20951;-78
2022/07/21 00:57:08;;;;;;;49.83;27.60;;;21.20;93.90;;;;;;5052180;28;20188;-78
2022/07/21 01:00:08;;;;;;;45.47;28.97;;;21.20;96.10;;;;;;5039010;28;20432;-78
2022/07/21 01:02:56;;;;;;;49.33;28.20;;;21.20;96.60;;;;;;5050938;28;20632;-78
2022/07/21 01:05:57;;;;;;;49.43;28.43;;;21.30;96.50;;;;;;5038702;28;20447;-77
2022/07/21 01:08:43;;;;;;;45.30;29.37;;;21.30;95.00;;;;;;5048742;28;20430;-77
2022/07/21 01:11:21;;;;;;;46.27;29.30;;;21.20;96.20;;;;;;5041303;28;20923;-78
2022/07/21 01:13:47;;;;;;;60.67;30.40;;;21.20;96.50;;;;;;5050454;28;20444;-78
2022/07/21 01:16:14;;;;;;;49.13;29.87;;;21.20;97.30;;;;;;5042860;28;20423;-78
2022/07/21 01:18:40;;;;;;;44.60;28.47;;;21.20;95.50;;;;;;5050700;28;20419;-78
2022/07/21 01:21:29;;;;;;;47.43;28.40;;;21.20;95.80;;;;;;5042914;28;20417;-78
2022/07/21 01:24:03;;;;;;;44.53;26.80;;;21.30;94.10;;;;;;5039706;28;20223;-78
2022/07/21 01:26:29;;;;;;;45.97;29.00;;;21.30;93.40;;;;;;5052502;28;20420;-78
2022/07/21 01:29:09;;;;;;;45.27;29.00;;;21.20;92.10;;;;;;5037450;28;20904;-78
2022/07/21 01:31:50;;;;;;;43.63;27.23;;;21.20;94.20;;;;;;5051267;28;20516;-78
2022/07/21 01:34:16;;;;;;;38.53;26.83;;;21.20;94.20;;;;;;5040292;28;20424;-78
2022/07/21 01:36:41;;;;;;;59.10;28.63;;;21.20;93.60;;;;;;5038125;28;20423;-78
2022/07/21 01:42:13;;;;;;;36.80;25.00;;;21.20;90.10;;;;;;5047466;28;20188;-78
2022/07/21 01:44:43;;;;;;;44.33;25.67;;;21.20;88.80;;;;;;5036185;28;20807;-78
2022/07/21 01:47:21;;;;;;;38.63;25.80;;;21.10;91.60;;;;;;5031688;28;20896;-78
2022/07/21 01:50:13;;;;;;;35.63;23.80;;;21.10;90.50;;;;;;5040878;28;20502;-78
2022/07/21 01:52:39;;;;;;;46.87;25.40;;;21.10;87.70;;;;;;5049243;28;20416;-78
2022/07/21 01:55:13;;;;;;;45.90;24.90;;;21.00;87.70;;;;;;5042982;28;20506;-78
2022/07/21 01:57:39;;;;;;;38.93;25.33;;;21.00;86.40;;;;;;5046523;28;20280;-78
2022/07/21 02:00:08;;;;;;;41.17;25.10;;;20.90;85.00;;;;;;5043702;28;20419;-78
2022/07/21 02:02:44;;;;;;;38.57;24.20;;;20.90;88.30;;;;;;5039797;28;20748;-81
2022/07/21 02:05:14;;;;;;;40.90;25.33;;;20.80;88.00;;;;;;5052902;28;20439;-82
2022/07/21 02:08:01;;;;;;;44.80;23.40;;;20.80;92.70;;;;;;5046798;28;20444;-82
2022/07/21 02:10:37;;;;;;;42.50;24.47;;;20.80;94.20;;;;;;5047002;28;20443;-82
2022/07/21 02:13:13;;;;;;;45.87;25.20;;;20.70;97.90;;;;;;5041738;28;20439;-82
2022/07/21 02:15:43;;;;;;;47.70;26.20;;;20.70;99.90;;;;;;5041288;28;20423;-82
2022/07/21 02:21:38;;;;;;;39.83;25.03;;;20.70;99.90;;;;;;5049383;28;20399;-82
2022/07/21 02:24:07;;;;;;;42.70;24.43;;;20.70;99.90;;;;;;5043658;28;20451;-82
2022/07/21 02:26:43;;;;;;;38.60;25.47;;;20.70;99.90;;;;;;5041563;28;20414;-82
2022/07/21 02:29:09;;;;;;;29.57;17.33;;;20.80;99.90;;;;;;5044432;28;20426;-82
2022/07/21 02:31:37;;;;;;;32.53;18.30;;;20.70;91.70;;;;;;5056112;28;20461;-82
2022/07/21 02:34:03;;;;;;;24.33;18.47;;;20.70;78.70;;;;;;5047906;28;20655;-78
2022/07/21 02:36:29;;;;;;;25.40;16.50;;;20.70;63.90;;;;;;5036099;28;20474;-78
2022/07/21 02:39:13;;;;;;;22.00;15.40;;;20.70;51.50;;;;;;5039850;28;20659;-78
2022/07/21 02:41:49;;;;;;;24.27;16.20;;;20.70;51.40;;;;;;5049411;28;20264;-78
2022/07/21 02:44:19;;;;;;;24.07;15.73;;;20.70;39.70;;;;;;5042827;28;20980;-78
2022/07/21 02:46:55;;;;;;;23.97;16.93;;;20.80;45.10;;;;;;5035864;28;20471;-78
2022/07/21 02:49:25;;;;;;;26.17;16.50;;;20.80;51.50;;;;;;5043223;28;20425;-82
2022/07/21 02:51:56;;;;;;;23.60;14.43;;;20.80;51.50;;;;;;5034588;28;20771;-81
2022/07/21 02:54:37;;;;;;;29.03;14.40;;;20.80;49.60;;;;;;5035954;28;20771;-82
2022/07/21 02:57:13;;;;;;;19.80;13.00;;;20.80;35.00;;;;;;5034437;28;20950;-82
2022/07/21 02:59:39;;;;;;;20.67;11.83;;;20.70;24.50;;;;;;5042699;28;20913;-82
2022/07/21 03:02:07;;;;;;;15.23;10.70;;;20.70;9.60;;;;;;5044142;28;20431;-82
2022/07/21 03:04:55;;;;;;;18.33;11.83;;;20.60;1.60;;;;;;5048832;28;20722;-82
2022/07/21 03:08:07;;;;;;;21.27;11.20;;;20.60;1.00;;;;;;5049003;28;20412;-82
2022/07/21 03:11:25;;;;;;;14.07;11.30;;;20.70;1.00;;;;;;5052230;28;20425;-82
2022/07/21 03:14:02;;;;;;;16.93;12.03;;;20.60;3.00;;;;;;5040902;28;20411;-83
2022/07/21 03:16:37;;;;;;;21.13;11.50;;;20.50;1.00;;;;;;5043136;28;20427;-82
2022/07/21 03:19:08;;;;;;;27.23;12.77;;;20.60;12.00;;;;;;5042664;28;21169;-79
2022/07/21 03:21:37;;;;;;;17.93;12.37;;;20.60;14.50;;;;;;5041652;28;20423;-78
2022/07/21 03:24:07;;;;;;;23.70;12.50;;;20.60;16.10;;;;;;5054681;28;20443;-78
2022/07/21 03:26:43;;;;;;;20.03;12.70;;;20.60;18.50;;;;;;5041620;28;20410;-78
2022/07/21 03:29:10;;;;;;;21.17;11.67;;;20.60;19.20;;;;;;5044864;28;20415;-78
2022/07/21 03:31:35;;;;;;;16.10;11.17;;;20.50;17.70;;;;;;5048513;28;20387;-77
2022/07/21 03:34:02;;;;;;;15.97;11.50;;;20.50;16.00;;;;;;5045345;28;20409;-78
2022/07/21 03:36:31;;;;;;;15.63;12.03;;;20.40;20.00;;;;;;5039734;28;20952;-78
2022/07/21 03:39:04;;;;;;;14.90;11.47;;;20.50;21.90;;;;;;5045091;28;20431;-77
2022/07/21 03:42:07;;;;;;;16.93;11.77;;;20.50;21.70;;;;;;5050220;28;20785;-77
2022/07/21 03:44:37;;;;;;;15.77;11.77;;;20.40;18.20;;;;;;5041085;28;20447;-77
2022/07/21 03:47:37;;;;;;;19.80;11.47;;;20.40;18.20;;;;;;5043436;28;20960;-77
2022/07/21 03:50:04;;;;;;;16.50;9.80;;;20.50;19.90;;;;;;5041296;28;20421;-77
2022/07/21 03:52:30;;;;;;;15.40;10.57;;;20.40;17.70;;;;;;5049021;28;20408;-77
2022/07/21 03:55:31;;;;;;;24.13;11.33;;;20.40;16.10;;;;;;5046524;28;20462;-77
2022/07/21 03:58:08;;;;;;;16.23;10.93;;;20.50;15.90;;;;;;5048296;28;20204;-78
2022/07/21 04:00:40;;;;;;;20.93;11.00;;;20.50;17.60;;;;;;5047633;28;20386;-78
2022/07/21 04:03:07;;;;;;;20.33;10.70;;;20.50;19.00;;;;;;5034455;28;20479;-78
2022/07/21 04:05:39;;;;;;;14.20;11.30;;;20.50;18.90;;;;;;5049873;28;20422;-78
2022/07/21 04:08:06;;;;;;;14.43;10.67;;;20.40;21.00;;;;;;5034232;28;20479;-77
2022/07/21 04:10:39;;;;;;;11.80;9.30;;;20.40;22.40;;;;;;5047575;28;20411;-77
2022/07/21 04:13:14;;;;;;;22.50;12.13;;;20.40;20.60;;;;;;5044563;28;20516;-78
2022/07/21 04:15:40;;;;;;;25.33;10.90;;;20.40;18.70;;;;;;5040549;28;20421;-77
2022/07/21 04:18:13;;;;;;;19.83;10.80;;;20.40;19.80;;;;;;5053818;28;20922;-77
2022/07/21 04:20:39;;;;;;;27.83;10.63;;;20.30;18.00;;;;;;5048188;28;20960;-78
2022/07/21 04:23:25;;;;;;;19.67;11.00;;;20.30;18.00;;;;;;5046456;28;20440;-77
2022/07/21 04:25:51;;;;;;;14.37;11.03;;;20.30;20.40;;;;;;5042383;28;20169;-78
2022/07/21 04:28:37;;;;;;;16.37;11.07;;;20.30;22.00;;;;;;5053787;28;20415;-78
2022/07/21 04:31:08;;;;;;;14.80;10.70;;;20.20;24.60;;;;;;5033847;28;20161;-78
2022/07/21 04:33:49;;;;;;;22.90;11.37;;;20.20;26.30;;;;;;5047780;28;20497;-78
2022/07/21 04:36:19;;;;;;;24.97;10.67;;;20.20;25.10;;;;;;5048464;28;20539;-78
2022/07/21 04:39:02;;;;;;;17.13;10.10;;;20.20;20.00;;;;;;5053494;28;20963;-77
2022/07/21 04:41:38;;;;;;;17.60;9.43;;;20.30;14.50;;;;;;5040391;28;20791;-77
2022/07/21 04:44:07;;;;;;;16.07;10.33;;;20.20;10.60;;;;;;5046689;28;20467;-78
2022/07/21 04:46:33;;;;;;;12.33;9.10;;;20.20;11.10;;;;;;5053358;28;20912;-77
2022/07/21 04:49:19;;;;;;;16.63;9.30;;;20.20;8.30;;;;;;5053300;28;20521;-77
2022/07/21 04:51:49;;;;;;;9.50;7.80;;;20.20;2.10;;;;;;5033597;28;20157;-77
2022/07/21 04:54:20;;;;;;;14.07;8.70;;;20.20;1.00;;;;;;5050366;28;20425;-77
2022/07/21 04:56:50;;;;;;;15.97;9.10;;;20.20;1.00;;;;;;5053479;28;20773;-77
2022/07/21 04:59:49;;;;;;;14.30;8.20;;;20.10;1.00;;;;;;5053489;28;20449;-77
2022/07/21 05:02:15;;;;;;;12.47;7.60;;;20.10;1.00;;;;;;5050745;28;20891;-77
2022/07/21 05:04:50;;;;;;;18.07;8.17;;;20.00;1.00;;;;;;5042170;28;20434;-78
2022/07/21 05:07:25;;;;;;;11.93;7.77;;;20.00;1.00;;;;;;5037527;28;20263;-77
2022/07/21 05:09:57;;;;;;;11.07;8.67;;;20.00;1.00;;;;;;5044468;28;20996;-77
2022/07/21 05:12:23;;;;;;;10.33;7.77;;;19.90;1.00;;;;;;5049443;28;20462;-77
2022/07/21 05:14:48;;;;;;;14.83;8.60;;;20.00;1.00;;;;;;5047385;28;20423;-77
2022/07/21 05:17:26;;;;;;;9.00;8.07;;;20.10;1.00;;;;;;5047647;28;20453;-78
2022/07/21 05:19:55;;;;;;;11.43;8.83;;;20.20;1.00;;;;;;5053565;28;20161;-78
2022/07/21 05:22:26;;;;;;;9.97;7.70;;;20.40;1.00;;;;;;5053032;28;20403;-78
2022/07/21 05:24:55;;;;;;;9.40;7.83;;;20.60;1.00;;;;;;5038341;28;20837;-78
2022/07/21 05:27:32;;;;;;;19.43;8.10;;;20.70;1.00;;;;;;5041737;28;20505;-78
2022/07/21 05:30:02;;;;;;;14.77;8.83;;;20.80;1.00;;;;;;5049313;28;20926;-78
2022/07/21 05:33:01;;;;;;;12.03;7.83;;;20.90;1.00;;;;;;5040031;28;20424;-78
2022/07/21 05:35:27;;;;;;;11.47;8.43;;;21.00;1.00;;;;;;5055371;28;20447;-78
2022/07/21 05:37:56;;;;;;;8.50;7.30;;;21.10;1.00;;;;;;5052633;28;20443;-79
2022/07/21 05:40:22;;;;;;;11.30;8.30;;;21.30;1.00;;;;;;5053637;28;20444;-78
2022/07/21 05:43:13;;;;;;;13.23;7.97;;;21.40;1.00;;;;;;5042316;28;20888;-78
2022/07/21 05:45:47;;;;;;;11.27;7.50;;;21.50;1.00;;;;;;5040541;28;20923;-78
2022/07/21 05:48:55;;;;;;;13.97;8.07;;;21.70;1.00;;;;;;5051065;28;20447;-78
2022/07/21 05:51:21;;;;;;;11.63;7.83;;;21.60;1.00;;;;;;5055809;28;20505;-77
2022/07/21 05:53:47;;;;;;;17.10;8.80;;;21.50;1.00;;;;;;5049351;28;20540;-78
2022/07/21 05:56:14;;;;;;;9.60;7.90;;;21.60;1.00;;;;;;5043015;28;20201;-77
2022/07/21 05:58:56;;;;;;;12.43;8.30;;;21.70;1.00;;;;;;5069212;28;20248;-77
2022/07/21 06:02:07;;;;;;;11.60;8.17;;;21.70;1.00;;;;;;5053364;28;20404;-77
2022/07/21 06:04:37;;;;;;;13.63;8.50;;;21.70;1.00;;;;;;5045007;28;20524;-77
2022/07/21 06:07:03;;;;;;;10.17;7.27;;;21.70;1.00;;;;;;5046767;28;20422;-78
2022/07/21 06:09:49;;;;;;;13.00;7.87;;;21.70;1.00;;;;;;5035475;28;20429;-77
2022/07/21 06:12:19;;;;;;;14.40;6.97;;;21.70;1.00;;;;;;5061535;28;20185;-77
2022/07/21 06:15:02;;;;;;;15.57;8.10;;;21.80;1.00;;;;;;5043287;28;20432;-77
2022/07/21 06:17:34;;;;;;;14.10;7.87;;;22.00;1.00;;;;;;5053682;28;20403;-77
2022/07/21 06:20:08;;;;;;;11.03;7.50;;;22.10;1.00;;;;;;5046192;28;20509;-77
2022/07/21 06:22:35;;;;;;;9.73;7.33;;;22.30;1.00;;;;;;5040945;28;20465;-77
2022/07/21 06:25:03;;;;;;;13.10;9.03;;;22.40;1.00;;;;;;5041198;28;20477;-77
2022/07/21 06:27:38;;;;;;;14.97;7.83;;;22.50;1.00;;;;;;5054843;28;20426;-78
2022/07/21 06:30:14;;;;;;;12.40;7.90;;;22.60;1.00;;;;;;5044529;28;20945;-78
2022/07/21 06:36:37;;;;;;;10.90;7.80;;;22.90;1.00;;;;;;5051694;28;20596;-90
2022/07/21 06:39:31;;;;;;;8.87;7.00;;;23.20;1.00;;;;;;5057057;28;20420;-90
2022/07/21 06:42:25;;;;;;;10.40;7.17;;;23.20;1.00;;;;;;5056986;28;20425;-91
2022/07/21 06:45:13;;;;;;;11.60;6.93;;;23.30;1.00;;;;;;5035745;28;20416;-91
2022/07/21 06:48:21;;;;;;;13.77;7.47;;;23.30;1.00;;;;;;5035731;28;20447;-82
2022/07/21 06:50:50;;;;;;;10.90;6.80;;;23.00;1.00;;;;;;5048099;28;20413;-79
2022/07/21 06:53:26;;;;;;;9.67;6.43;;;22.90;1.00;;;;;;5044028;28;20432;-80
2022/07/21 06:56:37;;;;;;;10.20;6.57;;;22.90;1.00;;;;;;5047532;28;20440;-79
2022/07/21 06:59:08;;;;;;;9.70;6.83;;;22.90;1.00;;;;;;5035739;28;20449;-80
2022/07/21 07:01:38;;;;;;;7.90;6.83;;;22.80;1.00;;;;;;5049116;28;20428;-79
2022/07/21 07:04:25;;;;;;;11.20;6.70;;;22.90;1.00;;;;;;5042429;28;20463;-79
2022/07/21 07:06:52;;;;;;;9.23;6.40;;;22.90;1.00;;;;;;5046520;28;20463;-78
2022/07/21 07:09:25;;;;;;;11.03;7.03;;;22.90;1.00;;;;;;5051407;28;20406;-75
2022/07/21 07:11:52;;;;;;;8.93;6.67;;;23.00;1.00;;;;;;5046901;28;20441;-75
2022/07/21 07:14:18;;;;;;;7.10;6.40;;;22.90;1.00;;;;;;5051716;28;20989;-75
2022/07/21 07:16:45;;;;;;;7.97;6.50;;;23.00;1.00;;;;;;5044198;28;20442;-74
2022/07/21 07:19:13;;;;;;;8.67;6.27;;;23.20;1.00;;;;;;5053267;28;20427;-75
2022/07/21 07:22:26;;;;;;;9.30;6.83;;;23.30;1.00;;;;;;5053084;28;20415;-82
2022/07/21 07:25:16;;;;;;;11.90;6.90;;;23.40;1.00;;;;;;5043866;28;20946;-82
2022/07/21 07:27:56;;;;;;;11.67;7.37;;;23.50;1.00;;;;;;5051726;28;20420;-83
2022/07/21 07:31:13;;;;;;;11.00;6.73;;;23.80;1.00;;;;;;5043006;28;20481;-82
2022/07/21 07:33:39;;;;;;;7.40;6.70;;;23.70;1.00;;;;;;5047449;28;20420;-83
2022/07/21 07:36:11;;;;;;;9.27;6.33;;;23.90;1.00;;;;;;5054868;28;21020;-81
2022/07/21 07:38:43;;;;;;;7.67;5.43;;;24.10;1.00;;;;;;5052393;28;20232;-81
2022/07/21 07:41:14;;;;;;;9.23;6.27;;;24.50;1.00;;;;;;5047224;28;20421;-80
2022/07/21 07:43:51;;;;;;;6.50;5.53;;;24.80;1.00;;;;;;5048483;28;20552;-80
2022/07/21 07:46:20;;;;;;;7.00;6.23;;;25.30;1.00;;;;;;5043119;28;20503;-81
2022/07/21 07:48:49;;;;;;;6.80;5.93;;;25.30;1.00;;;;;;5053164;28;20928;-81
2022/07/21 07:57:59;;;;;;;8.03;5.93;;;25.50;1.00;;;;;;5048522;28;20399;-87
2022/07/21 08:04:25;;;;;;;7.43;5.87;;;25.40;1.00;;;;;;5043270;28;20574;-87
2022/07/21 08:16:58;;;;;;;9.20;5.90;;;24.90;1.00;;;;;;5039012;28;20427;-88
2022/07/21 08:20:13;;;;;;;7.70;6.00;;;25.00;1.00;;;;;;5048881;28;20446;-83
2022/07/21 08:22:49;;;;;;;8.60;6.30;;;25.10;1.00;;;;;;5041717;28;20509;-80
2022/07/21 08:25:20;;;;;;;7.80;5.90;;;25.20;1.00;;;;;;5048687;28;20962;-80
2022/07/21 08:28:08;;;;;;;8.23;5.90;;;25.40;1.00;;;;;;5050239;28;20932;-80
2022/07/21 08:30:38;;;;;;;8.90;5.50;;;25.60;1.00;;;;;;5039013;28;20433;-80
2022/07/21 08:33:20;;;;;;;6.00;5.00;;;25.80;1.00;;;;;;5039742;28;20439;-80
2022/07/21 08:35:50;;;;;;;6.57;4.90;;;25.60;1.00;;;;;;5053516;28;20538;-81
2022/07/21 08:39:01;;;;;;;6.97;4.60;;;25.50;1.00;;;;;;5039464;28;20418;-84
2022/07/21 08:41:32;;;;;;;5.27;4.63;;;25.60;1.00;;;;;;5052683;28;20425;-84
2022/07/21 08:44:14;;;;;;;5.20;4.50;;;26.00;1.00;;;;;;5039129;28;20473;-83
2022/07/21 08:46:49;;;;;;;6.83;4.53;;;26.40;1.00;;;;;;5038043;28;20433;-84
2022/07/21 08:49:45;;;;;;;6.20;4.97;;;26.80;1.00;;;;;;5047158;28;20413;-84
2022/07/21 08:52:26;;;;;;;6.00;4.70;;;27.00;1.00;;;;;;5044063;28;20487;-84
2022/07/21 08:55:19;;;;;;;5.33;4.43;;;27.50;1.00;;;;;;5052192;28;20774;-84
2022/07/21 08:57:56;;;;;;;10.13;4.13;;;27.50;1.00;;;;;;5040164;28;20400;-84
2022/07/21 09:00:26;;;;;;;4.80;4.07;;;27.60;1.00;;;;;;5038914;28;20497;-84
2022/07/21 09:03:25;;;;;;;4.67;4.13;;;27.40;1.00;;;;;;5053488;28;20973;-84
2022/07/21 09:06:25;;;;;;;4.43;4.03;;;27.40;1.00;;;;;;5033713;28;20416;-85
2022/07/21 09:09:26;;;;;;;9.30;4.00;;;27.50;1.00;;;;;;5067320;28;20425;-84
2022/07/21 09:12:31;;;;;;;4.23;3.93;;;27.10;1.00;;;;;;5043955;28;20516;-83
2022/07/21 09:15:21;;;;;;;8.07;4.87;;;26.60;1.00;;;;;;5042873;28;20424;-83
2022/07/21 09:18:13;;;;;;;5.10;3.90;;;26.40;1.00;;;;;;5040065;28;20430;-77
2022/07/21 09:20:58;;;;;;;4.27;3.87;;;26.40;1.00;;;;;;5044776;28;20471;-85
2022/07/21 09:23:38;;;;;;;4.93;4.37;;;26.20;1.00;;;;;;5049582;28;20462;-82
2022/07/21 09:26:14;;;;;;;5.50;4.03;;;26.20;1.00;;;;;;5052211;28;20828;-83
2022/07/21 09:28:41;;;;;;;6.10;3.80;;;26.20;1.00;;;;;;5050025;28;20549;-82
2022/07/21 09:31:20;;;;;;;4.70;4.30;;;26.30;1.00;;;;;;5037368;28;20438;-85
2022/07/21 09:34:12;;;;;;;5.47;4.40;;;26.30;1.00;;;;;;5045659;28;20758;-83
2022/07/21 09:36:38;;;;;;;5.50;3.90;;;26.00;1.00;;;;;;5036911;28;20981;-83
2022/07/21 09:42:32;;;;;;;4.00;3.60;;;25.60;1.00;;;;;;5057022;28;20467;-83
2022/07/21 09:45:11;;;;;;;3.80;3.50;;;25.50;1.00;;;;;;5051345;28;20463;-83
2022/07/21 09:51:18;;;;;;;5.47;3.60;;;25.60;1.00;;;;;;5060736;28;20415;-83
2022/07/21 09:54:01;;;;;;;4.93;3.57;;;25.80;1.00;;;;;;5066025;28;20435;-82
2022/07/21 09:56:45;;;;;;;4.40;3.87;;;25.80;1.00;;;;;;5037071;28;20463;-83
2022/07/21 09:59:44;;;;;;;4.53;4.13;;;26.10;1.00;;;;;;5036810;28;20484;-82
2022/07/21 10:02:26;;;;;;;4.40;4.00;;;26.20;1.00;;;;;;5037898;28;20414;-83
2022/07/21 10:08:14;;;;;;;3.70;3.40;;;26.40;1.00;;;;;;5048141;28;20479;-79
2022/07/21 10:10:39;;;;;;;4.53;3.33;;;26.60;1.00;;;;;;5043006;28;20457;-80
2022/07/21 10:13:14;;;;;;;4.00;3.60;;;26.60;1.00;;;;;;5056162;28;20396;-80
2022/07/21 10:16:02;;;;;;;3.87;3.37;;;26.70;1.00;;;;;;5056158;28;20183;-79
2022/07/21 10:19:07;;;;;;;4.53;3.37;;;26.80;1.00;;;;;;5047716;28;20416;-81
2022/07/21 10:22:21;;;;;;;3.90;2.90;;;26.90;1.00;;;;;;5044731;28;20407;-80
2022/07/21 10:25:07;;;;;;;5.20;3.30;;;26.80;1.00;;;;;;5051773;28;21014;-81
2022/07/21 10:27:33;;;;;;;3.30;2.97;;;26.90;1.00;;;;;;5056144;28;20405;-74
2022/07/21 10:30:04;;;;;;;3.20;3.00;;;27.00;1.00;;;;;;5056110;28;20757;-75
2022/07/21 10:32:38;;;;;;;4.57;3.07;;;27.30;1.00;;;;;;5055240;28;20238;-75
2022/07/21 10:35:28;;;;;;;4.40;3.30;;;27.30;1.00;;;;;;5055935;28;20447;-75
2022/07/21 10:37:54;;;;;;;3.63;3.00;;;27.30;1.00;;;;;;5056474;28;20497;-77
2022/07/21 10:40:20;;;;;;;3.70;3.40;;;27.30;1.00;;;;;;5038444;28;20454;-78
2022/07/21 10:43:17;;;;;;;3.30;3.10;;;27.10;1.00;;;;;;5034831;28;20448;-77
2022/07/21 10:45:43;;;;;;;4.57;3.60;;;27.20;1.00;;;;;;5014176;28;20197;-77
2022/07/21 10:48:40;;;;;;;3.73;3.17;;;27.20;1.00;;;;;;5014116;28;20417;-77
2022/07/21 10:51:10;;;;;;;3.60;3.40;;;27.10;1.00;;;;;;4994667;28;20455;-76
2022/07/21 10:53:37;;;;;;;4.00;2.90;;;27.20;1.00;;;;;;5016759;28;20423;-77
2022/07/21 10:56:08;;;;;;;4.70;3.30;;;27.40;1.00;;;;;;4997687;28;20440;-77
2022/07/21 10:58:39;;;;;;;3.03;2.80;;;27.30;1.00;;;;;;4994607;28;20418;-77
2022/07/21 11:01:14;;;;;;;3.20;2.90;;;27.50;1.00;;;;;;5008686;28;20410;-77
2022/07/21 11:04:17;;;;;;;6.10;3.60;;;27.60;1.00;;;;;;5014011;28;20469;-77
2022/07/21 11:06:55;;;;;;;6.60;2.90;;;28.10;1.00;;;;;;4943016;29;20926;-77
2022/07/21 11:09:26;;;;;;;3.47;3.00;;;28.20;1.00;;;;;;4955560;29;20418;-77
2022/07/21 11:12:03;;;;;;;4.43;2.60;;;28.40;1.00;;;;;;4955287;29;20430;-77
2022/07/21 11:14:44;;;;;;;5.10;2.87;;;28.70;1.00;;;;;;4937334;29;20517;-77
2022/07/21 11:17:40;;;;;;;3.60;2.67;;;29.10;1.00;;;;;;4949330;29;20514;-78
2022/07/21 11:20:37;;;;;;;2.67;2.47;;;29.30;1.00;;;;;;4873064;29;20463;-77
2022/07/21 11:23:07;;;;;;;4.00;2.90;;;29.50;1.00;;;;;;4898920;29;20473;-75
2022/07/21 11:25:36;;;;;;;4.60;2.97;;;29.70;1.00;;;;;;4897730;29;20435;-74
2022/07/21 11:28:02;;;;;;;2.80;2.60;;;29.70;1.00;;;;;;4903216;29;20453;-75
2022/07/21 11:30:28;;;;;;;2.53;2.43;;;29.70;1.00;;;;;;4893658;29;20933;-75
2022/07/21 11:32:54;;;;;;;4.20;2.67;;;30.00;1.00;;;;;;4899457;29;20461;-74
2022/07/21 11:35:20;;;;;;;4.50;2.43;;;30.10;1.00;;;;;;4899259;29;20279;-75
2022/07/21 11:37:46;;;;;;;3.23;2.50;;;30.30;1.00;;;;;;4898079;29;20340;-75
2022/07/21 11:40:17;;;;;;;2.53;2.33;;;29.70;1.00;;;;;;4921405;28;20596;-77
2022/07/21 11:42:46;;;;;;;4.33;2.73;;;29.50;1.00;;;;;;4973346;28;20899;-77
2022/07/21 11:45:25;;;;;;;5.23;2.50;;;29.10;1.00;;;;;;4964908;28;20914;-76
2022/07/21 11:47:51;;;;;;;3.67;2.90;;;28.90;1.00;;;;;;4982487;28;20441;-77
2022/07/21 11:50:26;;;;;;;3.80;2.97;;;29.00;1.00;;;;;;4961095;28;20448;-77
2022/07/21 11:52:52;;;;;;;3.90;2.70;;;29.00;1.00;;;;;;4956122;28;20440;-77
2022/07/21 11:55:19;;;;;;;2.60;2.50;;;28.60;1.00;;;;;;4974582;28;20445;-77
2022/07/21 11:57:56;;;;;;;2.27;2.17;;;28.30;1.00;;;;;;5035111;28;20416;-76
2022/07/21 12:00:26;;;;;;;2.80;2.60;;;28.00;1.00;;;;;;5054266;28;20498;-77
2022/07/21 12:03:05;;;;;;;3.00;2.80;;;27.70;1.00;;;;;;5053338;28;20828;-77
2022/07/21 12:05:31;;;;;;;4.00;3.40;;;27.30;1.00;;;;;;5054539;28;20392;-77
2022/07/21 12:08:02;;;;;;;4.47;2.90;;;27.10;1.00;;;;;;5054390;28;20394;-77
2022/07/21 12:10:32;;;;;;;6.43;3.20;;;26.90;1.00;;;;;;5054632;28;20631;-75
2022/07/21 12:13:05;;;;;;;3.07;2.87;;;26.80;1.00;;;;;;5053860;28;20414;-74
2022/07/21 12:15:36;;;;;;;4.20;3.33;;;26.80;1.00;;;;;;5053192;28;20497;-75
2022/07/21 12:18:24;;;;;;;3.53;3.23;;;26.90;1.00;;;;;;5033843;28;20418;-75
2022/07/21 12:21:02;;;;;;;3.20;2.87;;;27.10;1.00;;;;;;5049370;28;20446;-75
2022/07/21 12:23:49;;;;;;;2.60;2.40;;;27.10;1.00;;;;;;5054274;28;20486;-76
2022/07/21 12:26:22;;;;;;;3.00;2.80;;;27.10;1.00;;;;;;5035643;28;20432;-75
2022/07/21 12:28:56;;;;;;;4.03;3.13;;;27.10;1.00;;;;;;5051353;28;20552;-75
2022/07/21 12:31:26;;;;;;;9.47;3.30;;;26.90;1.00;;;;;;5051620;28;20533;-75
2022/07/21 12:33:55;;;;;;;3.67;3.20;;;26.90;1.00;;;;;;5032348;28;20413;-74
2022/07/21 12:36:21;;;;;;;3.73;3.20;;;26.80;1.00;;;;;;5038893;28;20445;-75
2022/07/21 12:38:48;;;;;;;3.53;3.10;;;26.80;1.00;;;;;;5051573;28;20418;-76
2022/07/21 12:41:17;;;;;;;5.47;3.50;;;26.90;1.00;;;;;;5035298;28;20439;-79
2022/07/21 12:43:58;;;;;;;3.60;3.30;;;27.10;1.00;;;;;;5048290;28;20989;-77
2022/07/21 12:46:31;;;;;;;8.63;3.50;;;27.70;1.00;;;;;;5043918;28;20430;-76
2022/07/21 12:49:09;;;;;;;4.10;3.80;;;28.00;1.00;;;;;;5045666;28;20423;-77
2022/07/21 12:51:56;;;;;;;4.60;3.53;;;28.40;1.00;;;;;;5048796;28;20425;-81
2022/07/21 12:54:21;;;;;;;5.13;3.60;;;28.70;1.00;;;;;;5051673;28;20402;-75
2022/07/21 12:56:48;;;;;;;4.20;3.77;;;28.90;1.00;;;;;;5048297;28;20751;-75
2022/07/21 12:59:14;;;;;;;4.23;3.83;;;29.00;1.00;;;;;;5044226;28;20185;-74
2022/07/21 13:01:44;;;;;;;4.03;3.63;;;29.00;1.00;;;;;;5044109;28;20435;-80
2022/07/21 13:04:10;;;;;;;5.53;4.00;;;28.80;1.00;;;;;;5044891;28;20554;-82
2022/07/21 13:06:44;;;;;;;7.80;4.07;;;28.60;1.00;;;;;;5053212;28;20428;-82
2022/07/21 13:12:31;;;;;;;4.30;3.80;;;28.80;1.00;;;;;;5053393;28;20753;-85
2022/07/21 13:15:14;;;;;;;5.27;3.93;;;29.00;1.00;;;;;;5053841;28;20412;-85
2022/07/21 13:17:44;;;;;;;3.80;3.50;;;29.00;1.00;;;;;;5038970;28;20241;-85
2022/07/21 13:20:55;;;;;;;4.20;3.80;;;28.80;1.00;;;;;;5041648;28;20428;-85
2022/07/21 13:23:43;;;;;;;6.63;4.80;;;28.70;1.00;;;;;;5033609;28;20442;-85
2022/07/21 13:26:09;;;;;;;5.67;4.03;;;28.50;1.00;;;;;;5053149;28;20485;-81
2022/07/21 13:28:35;;;;;;;6.50;4.00;;;28.40;1.00;;;;;;5039707;28;20438;-72
2022/07/21 13:31:01;;;;;;;8.80;4.60;;;28.20;1.00;;;;;;5050834;28;20626;-70
2022/07/21 13:33:27;;;;;;;5.07;4.57;;;28.20;1.00;;;;;;5052929;28;20928;-70
2022/07/21 13:36:02;;;;;;;6.40;4.60;;;28.20;1.00;;;;;;5041907;28;20199;-81
2022/07/21 13:38:28;;;;;;;6.20;5.00;;;28.10;1.00;;;;;;5035696;28;20189;-76
2022/07/21 13:40:54;;;;;;;6.00;4.87;;;28.20;1.00;;;;;;5045876;28;20834;-77
2022/07/21 13:43:32;;;;;;;7.60;4.90;;;28.30;1.00;;;;;;5047580;28;20334;-77
2022/07/21 13:46:08;;;;;;;5.27;4.77;;;28.20;1.00;;;;;;5051434;28;20966;-77
2022/07/21 13:48:34;;;;;;;6.73;4.97;;;28.30;1.00;;;;;;5035089;28;20417;-78
2022/07/21 13:51:03;;;;;;;7.03;4.67;;;28.30;1.00;;;;;;5045095;28;20418;-77
2022/07/21 13:53:32;;;;;;;6.57;4.40;;;28.40;1.00;;;;;;5053285;28;20464;-77
2022/07/21 13:55:58;;;;;;;5.33;4.50;;;28.50;1.00;;;;;;5053418;28;20416;-77
2022/07/21 13:58:26;;;;;;;5.03;4.50;;;28.80;1.00;;;;;;5035066;28;20431;-77
2022/07/21 14:00:56;;;;;;;7.37;4.60;;;28.70;1.00;;;;;;5049286;28;20203;-77
2022/07/21 14:03:26;;;;;;;5.23;4.70;;;28.80;1.00;;;;;;5039670;28;20548;-77
2022/07/21 14:06:08;;;;;;;6.33;4.40;;;29.20;1.00;;;;;;5038294;28;20446;-77
2022/07/21 14:08:34;;;;;;;4.93;4.43;;;29.50;1.00;;;;;;5036989;28;20416;-77
2022/07/21 14:11:00;;;;;;;8.07;5.03;;;29.50;1.00;;;;;;5040953;28;20405;-75
2022/07/21 14:13:26;;;;;;;6.40;5.07;;;29.40;1.00;;;;;;5056012;28;20520;-75
2022/07/21 14:15:56;;;;;;;5.73;4.90;;;29.60;1.00;;;;;;5056449;28;20211;-74
2022/07/21 14:18:22;;;;;;;8.90;5.00;;;29.70;1.00;;;;;;5055687;28;20417;-74